13:31
Airports
History
Links
Donate
Help keep this website running!
PayPal
Bitcoin
This page is community maintained. The information is intended for PC simulator navigation or reference.
Always use approved charts for navigation.
MA16
Marshalls
Marshalls (MA16)
Holden, Massachusetts, United States (1520)
4
Lat/Lng:42° 21' 48.33" N / 71° 49' 18.26" W
42.363425 / -71.821739
Elevation:630'ft / 192mMSL
ID / ICAO:MA16
Runways:1
Longest:18-36
Grass 515m / 1,690ft
Nearby Weather13:28 GMT 2018-01-19
Nearby weather at KORH, Worcester Rgnl located 7.2 nautical miles from MA16
Altimeter: 29.92
Visibility: 9.0 statute miles
Wind: 12 knots (from 270°)
Temp: -8°c / 18°f
Humidity: 78.9%

METAR: KORH 191328Z 27012KT 9SM BKN033 M08/M11 A2992 RMK AO2 T10781111

(Powered by phpweather)
Nearby VORs <50NM
Nearby NDBs
Runway 18 / 36
Dimensions:515 x 243.8m 1690' x 800'ft
Surface:Grass
Runway 18 [A]Runway 36 [B]
Heading:164°TH 344°TH
Lat:
Lng:
42° 21' 56.44"N
71° 49' 21.2"W
42° 21' 40.22"N
71° 49' 15.32"W
User Notes and Comments
42° 21' 48.33" N / 71° 49' 18.26" W
Distance To
Airport ID:
Nearby Airports
(U) Sterling 4.6 NM
3B3 NNE 18°
(C) Worcester Rgnl 7.2 NM
KORH ( WX ) SSW 202°
(U) Spencer 8.9 NM
60M SW 235°
(R) Berlin Lndg Area 9.2 NM
MA19 E 88°
(U) Fitchburg Muni 13.6 NM
KFIT ( WX ) NNE 13°
(U) Oxford 14.6 NM
43M S 182°
(R) Unknown Field 15.2 NM
1MA5 ESE 112°
VFR Chart
Flight Planning at SkyVector.com